Time;durP1;ratioP1;P1;durP2;ratioP2;P2;SDS_P1;SDS_P2;PMS_P1;PMS_P2;Temp;Humidity;BMP_temperature;BMP_pressure;BME280_temperature;BME280_humidity;BME280_pressure;Samples;Min_cycle;Max_cycle;Signal;HPM_P1;HPM_P2
2022/10/07 00:01:46;;;;;;;4.32;0.50;;;10.60;99.90;;;;;;4917397;29;20063;-85
2022/10/07 00:04:12;;;;;;;4.68;0.60;;;10.60;99.90;;;;;;4918349;29;20128;-85
2022/10/07 00:06:38;;;;;;;5.30;1.30;;;10.60;99.90;;;;;;4917512;29;20048;-85
2022/10/07 00:09:04;;;;;;;5.95;0.60;;;11.40;99.90;;;;;;4919747;29;20052;-88
2022/10/07 00:11:30;;;;;;;6.15;0.65;;;10.60;99.90;;;;;;4902912;29;20215;-85
2022/10/07 00:13:59;;;;;;;5.80;1.05;;;10.60;99.90;;;;;;4919335;29;20052;-87
2022/10/07 00:16:33;;;;;;;2.13;0.50;;;10.60;99.90;;;;;;4913565;29;20059;-87
2022/10/07 00:19:01;;;;;;;3.55;0.65;;;10.60;99.90;;;;;;4920023;29;20534;-85
2022/10/07 00:21:29;;;;;;;4.47;0.50;;;10.60;99.90;;;;;;4937272;29;20366;-87
2022/10/07 00:23:55;;;;;;;3.70;1.00;;;10.50;99.90;;;;;;4920564;29;20063;-90
2022/10/07 00:26:23;;;;;;;2.92;0.73;;;10.90;99.90;;;;;;4919226;29;20055;-89
2022/10/07 00:28:50;;;;;;;8.05;0.80;;;10.60;99.90;;;;;;4904658;29;20060;-91
2022/10/07 00:31:18;;;;;;;7.38;1.27;;;10.50;99.90;;;;;;4937977;29;20043;-84
2022/10/07 00:33:44;;;;;;;6.50;0.98;;;10.60;99.90;;;;;;4920880;29;20063;-87
2022/10/07 00:36:14;;;;;;;3.03;0.50;;;10.60;99.90;;;;;;4942030;29;20046;-84
2022/10/07 00:38:40;;;;;;;4.68;0.90;;;10.60;99.90;;;;;;4941922;29;20058;-86
2022/10/07 00:41:07;;;;;;;2.60;0.65;;;10.50;99.90;;;;;;4928419;29;20044;-87
2022/10/07 00:43:33;;;;;;;1.50;0.60;;;11.10;99.90;;;;;;4920095;29;20067;-86
2022/10/07 00:46:14;;;;;;;3.55;0.40;;;11.60;99.90;;;;;;4901619;29;20060;-88
2022/10/07 00:48:41;;;;;;;4.57;0.60;;;10.60;99.90;;;;;;4886403;29;20060;-88
2022/10/07 00:51:08;;;;;;;2.72;0.50;;;11.10;99.90;;;;;;4901444;29;20052;-87
2022/10/07 00:53:37;;;;;;;1.90;0.43;;;10.50;99.90;;;;;;4900312;29;20075;-88
2022/10/07 00:56:04;;;;;;;3.83;0.57;;;10.60;99.90;;;;;;4901892;29;20048;-88
2022/10/07 00:58:33;;;;;;;3.10;0.50;;;10.50;99.90;;;;;;4901737;29;20116;-87
2022/10/07 01:00:59;;;;;;;7.60;0.60;;;10.70;99.90;;;;;;4900488;29;20060;-88
2022/10/07 01:03:25;;;;;;;3.45;0.60;;;10.60;99.90;;;;;;4900910;29;20505;-89
2022/10/07 01:05:51;;;;;;;2.92;0.40;;;10.60;99.90;;;;;;4900976;29;20424;-85
2022/10/07 01:08:18;;;;;;;5.82;0.68;;;11.40;99.90;;;;;;4918797;29;20048;-85
2022/10/07 01:11:12;;;;;;;7.70;0.80;;;10.70;99.90;;;;;;4921102;29;20417;-88
2022/10/07 01:14:08;;;;;;;3.53;0.75;;;10.70;99.90;;;;;;4921440;29;20052;-93
2022/10/07 01:17:02;;;;;;;2.30;0.65;;;10.60;99.90;;;;;;4904466;29;20064;-92
2022/10/07 01:19:50;;;;;;;5.65;0.60;;;10.60;99.90;;;;;;4930087;29;20056;-92
2022/10/07 01:22:31;;;;;;;4.80;0.75;;;10.50;99.90;;;;;;4942441;29;20051;-90
2022/10/07 01:25:15;;;;;;;7.30;1.05;;;11.40;99.90;;;;;;4946039;29;20048;-92
2022/10/07 01:27:49;;;;;;;6.85;0.60;;;10.60;99.90;;;;;;4928447;29;20508;-87
2022/10/07 01:30:16;;;;;;;1.73;0.50;;;11.60;99.90;;;;;;4934553;29;20128;-89
2022/10/07 01:32:55;;;;;;;1.83;0.52;;;10.50;99.90;;;;;;4925361;29;20048;-89
2022/10/07 01:35:32;;;;;;;5.00;0.60;;;10.50;99.90;;;;;;4892455;29;20060;-91
2022/10/07 01:38:04;;;;;;;3.53;0.60;;;11.30;99.90;;;;;;4926759;29;20052;-89
2022/10/07 01:40:39;;;;;;;3.22;0.50;;;11.10;99.90;;;;;;4925530;29;20183;-88
2022/10/07 01:43:08;;;;;;;2.78;0.80;;;10.40;99.90;;;;;;4928175;29;20055;-88
2022/10/07 01:45:38;;;;;;;6.53;1.88;;;11.20;99.90;;;;;;4933595;29;20523;-92
2022/10/07 01:48:03;;;;;;;2.22;0.70;;;11.20;99.90;;;;;;4944813;29;20052;-86
2022/10/07 01:54:56;;;;;;;3.88;0.60;;;10.40;99.90;;;;;;4923478;29;20051;-91
2022/10/07 01:57:36;;;;;;;4.82;0.75;;;10.40;99.90;;;;;;4908848;29;20098;-92
2022/10/07 02:00:09;;;;;;;2.97;0.60;;;10.30;99.90;;;;;;4926670;29;20401;-89
2022/10/07 02:02:47;;;;;;;3.58;0.60;;;10.30;99.90;;;;;;4926814;29;20063;-84
2022/10/07 02:05:56;;;;;;;2.97;0.75;;;10.30;99.90;;;;;;4912239;29;20056;-95
2022/10/07 02:08:30;;;;;;;8.25;0.77;;;10.30;99.90;;;;;;4930802;29;20056;-93
2022/10/07 02:11:16;;;;;;;3.80;0.70;;;10.30;99.90;;;;;;4941767;29;20059;-92
2022/10/07 02:14:03;;;;;;;5.13;0.90;;;10.20;99.90;;;;;;4933497;29;20131;-90
2022/10/07 02:16:41;;;;;;;5.40;0.50;;;10.20;99.90;;;;;;4929010;29;20072;-91
2022/10/07 02:19:29;;;;;;;4.05;0.80;;;10.20;99.90;;;;;;4924812;29;20056;-93
2022/10/07 02:21:57;;;;;;;3.53;0.80;;;10.40;99.90;;;;;;4908311;29;20138;-94
2022/10/07 02:24:27;;;;;;;4.40;1.02;;;11.10;99.90;;;;;;4922983;29;20048;-91
2022/10/07 02:26:55;;;;;;;5.22;0.70;;;11.00;99.90;;;;;;4944265;29;20059;-95
2022/10/07 02:29:24;;;;;;;6.15;1.13;;;11.10;99.90;;;;;;4938273;29;20055;-85
2022/10/07 02:31:51;;;;;;;3.63;1.17;;;11.00;99.90;;;;;;4917553;29;20489;-84
2022/10/07 02:34:21;;;;;;;6.13;0.90;;;10.70;99.90;;;;;;4903832;29;20517;-85
2022/10/07 02:36:54;;;;;;;7.55;0.82;;;10.10;99.90;;;;;;4919271;29;20465;-84
2022/10/07 02:39:20;;;;;;;3.92;0.90;;;10.50;99.90;;;;;;4920019;29;20099;-86
2022/10/07 02:42:18;;;;;;;4.75;1.00;;;10.10;99.90;;;;;;4919079;29;20052;-85
2022/10/07 02:44:46;;;;;;;6.20;1.15;;;10.10;99.90;;;;;;4902915;29;20485;-85
2022/10/07 02:47:24;;;;;;;3.50;0.68;;;10.00;99.90;;;;;;4919104;29;20059;-84
2022/10/07 02:49:52;;;;;;;5.40;0.60;;;10.00;99.90;;;;;;4918921;29;20092;-84
2022/10/07 02:52:20;;;;;;;5.80;0.82;;;10.40;99.90;;;;;;4907552;29;20087;-85
2022/10/07 02:54:56;;;;;;;4.43;0.88;;;10.50;99.90;;;;;;4934658;29;20052;-85
2022/10/07 02:57:25;;;;;;;3.95;0.80;;;9.90;99.90;;;;;;4902471;29;20054;-85
2022/10/07 02:59:55;;;;;;;3.67;0.95;;;10.90;99.90;;;;;;4919460;29;20059;-85
2022/10/07 03:02:27;;;;;;;4.93;0.90;;;9.90;99.90;;;;;;4918446;29;20575;-84
2022/10/07 03:04:56;;;;;;;2.70;0.80;;;10.30;99.90;;;;;;4918608;29;20123;-84
2022/10/07 03:07:22;;;;;;;4.57;0.80;;;10.20;99.90;;;;;;4918889;29;20176;-85
2022/10/07 03:09:48;;;;;;;6.47;0.80;;;10.10;99.90;;;;;;4901849;29;20126;-85
2022/10/07 03:12:13;;;;;;;2.17;0.60;;;10.50;99.90;;;;;;4918316;29;22026;-85
2022/10/07 03:14:39;;;;;;;2.83;0.70;;;10.40;99.90;;;;;;4917951;29;20115;-84
2022/10/07 03:17:05;;;;;;;1.15;0.50;;;9.80;99.90;;;;;;4918689;29;20063;-85
2022/10/07 03:19:31;;;;;;;1.92;0.68;;;10.00;99.90;;;;;;4917517;29;20060;-84
2022/10/07 03:21:57;;;;;;;1.90;0.43;;;9.80;99.90;;;;;;4936196;29;20131;-85
2022/10/07 03:24:24;;;;;;;2.17;0.60;;;10.00;99.90;;;;;;4936983;29;20405;-85
2022/10/07 03:26:49;;;;;;;2.20;0.60;;;9.70;99.90;;;;;;4918408;29;20052;-84
2022/10/07 03:29:16;;;;;;;2.38;0.60;;;10.60;99.90;;;;;;4920013;29;20143;-84
2022/10/07 03:31:41;;;;;;;3.08;0.40;;;9.60;99.90;;;;;;4936259;29;20408;-84
2022/10/07 03:34:08;;;;;;;2.60;0.50;;;9.60;99.90;;;;;;4919557;29;20052;-84
2022/10/07 03:36:34;;;;;;;3.50;0.80;;;9.60;99.90;;;;;;4919144;29;20079;-84
2022/10/07 03:39:00;;;;;;;2.65;0.57;;;9.60;99.90;;;;;;4918692;29;20079;-85
2022/10/07 03:41:25;;;;;;;3.60;0.75;;;10.50;99.90;;;;;;4918041;29;20466;-84
2022/10/07 03:43:51;;;;;;;2.50;0.77;;;9.50;99.90;;;;;;4901457;29;20397;-85
2022/10/07 03:46:18;;;;;;;1.33;0.40;;;9.50;99.90;;;;;;4917495;29;20052;-85
2022/10/07 03:48:44;;;;;;;3.47;0.70;;;9.50;99.90;;;;;;4910508;29;20051;-85
2022/10/07 03:51:10;;;;;;;2.30;0.70;;;9.50;99.90;;;;;;4938046;29;20056;-86
2022/10/07 03:53:39;;;;;;;1.90;0.50;;;9.90;99.90;;;;;;4937324;29;20378;-86
2022/10/07 03:56:06;;;;;;;2.88;0.63;;;9.70;99.90;;;;;;4937261;29;20527;-89
2022/10/07 03:58:32;;;;;;;3.00;0.70;;;9.60;99.90;;;;;;4917531;29;20066;-85
2022/10/07 04:01:08;;;;;;;3.47;0.60;;;9.50;99.90;;;;;;4902189;29;20508;-85
2022/10/07 04:03:34;;;;;;;2.35;0.55;;;9.40;99.90;;;;;;4928599;29;20063;-91
2022/10/07 04:06:02;;;;;;;2.83;0.70;;;9.40;99.90;;;;;;4919119;29;20055;-85
2022/10/07 04:08:29;;;;;;;2.55;0.57;;;10.20;99.90;;;;;;4902553;29;20520;-86
2022/10/07 04:10:58;;;;;;;4.40;0.57;;;10.20;99.90;;;;;;4919056;29;20125;-86
2022/10/07 04:13:27;;;;;;;5.65;0.70;;;10.20;99.90;;;;;;4918252;29;20104;-84
2022/10/07 04:15:53;;;;;;;2.17;0.60;;;9.40;99.90;;;;;;4917122;29;20064;-86
2022/10/07 04:18:19;;;;;;;2.97;0.95;;;10.30;99.90;;;;;;4900505;29;20416;-86
2022/10/07 04:20:45;;;;;;;7.70;0.90;;;9.80;99.90;;;;;;4901426;29;20493;-87
2022/10/07 04:23:10;;;;;;;6.10;0.88;;;9.50;99.90;;;;;;4900656;29;20124;-86
2022/10/07 04:25:42;;;;;;;3.85;0.90;;;9.70;99.90;;;;;;4917090;29;20048;-90
2022/10/07 04:28:19;;;;;;;1.48;0.60;;;9.70;99.90;;;;;;4917315;29;20052;-87
2022/10/07 04:30:50;;;;;;;2.30;0.85;;;9.40;99.90;;;;;;4931073;29;20465;-87
2022/10/07 04:33:16;;;;;;;5.05;1.00;;;9.40;99.90;;;;;;4919272;29;20091;-85
2022/10/07 04:35:43;;;;;;;3.78;0.82;;;9.40;99.90;;;;;;4936569;29;20446;-86
2022/10/07 04:38:10;;;;;;;7.93;1.23;;;9.40;99.90;;;;;;4918930;29;20461;-85
2022/10/07 04:40:41;;;;;;;4.80;0.95;;;9.40;99.90;;;;;;4919760;29;20058;-86
2022/10/07 04:43:21;;;;;;;5.93;0.93;;;9.70;99.90;;;;;;4914019;29;20099;-85
2022/10/07 04:45:50;;;;;;;8.15;1.42;;;9.50;99.90;;;;;;4922323;29;20048;-86
2022/10/07 04:48:17;;;;;;;8.05;1.40;;;10.60;99.90;;;;;;4903972;29;20059;-86
2022/10/07 04:50:43;;;;;;;6.75;1.80;;;9.40;99.90;;;;;;4918119;29;20047;-86
2022/10/07 04:53:13;;;;;;;3.90;0.85;;;9.70;99.90;;;;;;4922726;29;20477;-88
2022/10/07 04:55:41;;;;;;;5.97;1.05;;;9.40;99.90;;;;;;4940043;29;20051;-88
2022/10/07 04:58:07;;;;;;;11.95;1.50;;;9.40;99.90;;;;;;4939653;29;20099;-85
2022/10/07 05:00:33;;;;;;;4.13;0.80;;;9.50;99.90;;;;;;4914872;29;20191;-85
2022/10/07 05:02:59;;;;;;;5.35;1.00;;;9.50;99.90;;;;;;4902309;29;20142;-85
2022/10/07 05:05:26;;;;;;;3.58;0.85;;;9.50;99.90;;;;;;4923428;29;20445;-85
2022/10/07 05:07:52;;;;;;;2.53;0.73;;;10.10;99.90;;;;;;4939719;29;20056;-85
2022/10/07 05:10:18;;;;;;;9.48;1.05;;;9.50;99.90;;;;;;4906571;29;20052;-85
2022/10/07 05:12:44;;;;;;;5.53;0.90;;;9.60;99.90;;;;;;4904172;29;20056;-87
2022/10/07 05:15:10;;;;;;;2.53;1.17;;;10.40;99.90;;;;;;4888017;29;20052;-85
2022/10/07 05:17:39;;;;;;;5.75;1.30;;;9.60;99.90;;;;;;4888306;29;20071;-85
2022/10/07 05:20:06;;;;;;;4.32;1.00;;;10.10;99.90;;;;;;4928918;29;20066;-86
2022/10/07 05:22:32;;;;;;;8.13;1.05;;;9.60;99.90;;;;;;4922397;29;20500;-88
2022/10/07 05:24:58;;;;;;;1.73;0.65;;;9.70;99.90;;;;;;4922936;29;20055;-86
2022/10/07 05:27:26;;;;;;;9.50;1.95;;;10.70;99.90;;;;;;4923327;29;20051;-86
2022/10/07 05:29:51;;;;;;;9.57;1.13;;;10.10;99.90;;;;;;4911581;29;20052;-87
2022/10/07 05:32:17;;;;;;;6.20;0.95;;;10.10;99.90;;;;;;4907066;29;20060;-88
2022/10/07 05:34:46;;;;;;;9.38;1.15;;;10.70;99.90;;;;;;4923214;29;20059;-85
2022/10/07 05:37:14;;;;;;;5.85;1.20;;;10.70;99.90;;;;;;4923846;29;20051;-85
2022/10/07 05:39:39;;;;;;;2.53;0.95;;;10.20;99.90;;;;;;4940167;29;20051;-86
2022/10/07 05:42:05;;;;;;;5.80;1.50;;;10.50;99.90;;;;;;4924250;29;20194;-84
2022/10/07 05:44:31;;;;;;;5.13;1.00;;;10.00;99.90;;;;;;4925241;29;20091;-87
2022/10/07 05:46:57;;;;;;;7.63;1.10;;;9.60;99.90;;;;;;4904474;29;20063;-86
2022/10/07 05:49:26;;;;;;;4.30;1.23;;;9.60;99.90;;;;;;4921791;29;20052;-85
2022/10/07 05:55:33;;;;;;;7.60;1.63;;;9.60;99.90;;;;;;4937122;29;20088;-86
2022/10/07 05:57:58;;;;;;;6.65;1.08;;;9.70;99.90;;;;;;4907580;29;20113;-85
2022/10/07 06:00:24;;;;;;;11.52;1.58;;;9.60;99.90;;;;;;4938748;29;20052;-84
2022/10/07 06:02:50;;;;;;;8.40;1.30;;;9.80;99.90;;;;;;4940924;29;20045;-87
2022/10/07 06:05:17;;;;;;;7.82;1.17;;;9.10;99.90;;;;;;4924909;29;20056;-86
2022/10/07 06:07:43;;;;;;;4.90;1.17;;;10.20;99.90;;;;;;4926373;29;20091;-87
2022/10/07 06:13:09;;;;;;;6.28;1.20;;;9.60;99.90;;;;;;4940050;29;20059;-85
2022/10/07 06:15:37;;;;;;;8.15;1.55;;;9.60;99.90;;;;;;4944469;29;20054;-84
2022/10/07 06:18:03;;;;;;;10.63;1.40;;;9.80;99.90;;;;;;4939587;29;20500;-85
2022/10/07 06:20:29;;;;;;;11.50;1.50;;;9.60;99.90;;;;;;4937552;29;20063;-85
2022/10/07 06:22:56;;;;;;;4.28;1.02;;;10.80;99.90;;;;;;4905895;29;20083;-87
2022/10/07 06:25:22;;;;;;;9.55;1.55;;;9.70;99.90;;;;;;4919783;29;20052;-84
2022/10/07 06:27:47;;;;;;;5.28;1.13;;;9.80;99.90;;;;;;4909936;29;20055;-84
2022/10/07 06:30:13;;;;;;;7.68;1.35;;;9.90;99.90;;;;;;4939892;29;20062;-84
2022/10/07 06:32:39;;;;;;;7.05;1.40;;;9.90;99.90;;;;;;4940774;29;20421;-92
2022/10/07 06:35:05;;;;;;;4.47;1.40;;;9.90;99.90;;;;;;4919578;29;20409;-92
2022/10/07 06:37:33;;;;;;;2.58;1.40;;;9.90;99.90;;;;;;4925378;29;20107;-91
2022/10/07 06:39:59;;;;;;;8.48;1.17;;;10.30;99.90;;;;;;4924630;29;20062;-92
2022/10/07 06:42:25;;;;;;;7.18;1.30;;;10.10;99.90;;;;;;4924606;29;20044;-92
2022/10/07 06:44:52;;;;;;;6.82;1.52;;;10.10;99.90;;;;;;4934586;29;20115;-94
2022/10/07 06:47:19;;;;;;;9.13;1.40;;;10.90;99.90;;;;;;4918065;29;20060;-93
2022/10/07 06:49:45;;;;;;;8.82;1.52;;;10.20;99.90;;;;;;4932184;29;20044;-94
2022/10/07 06:52:11;;;;;;;14.75;2.47;;;10.30;99.90;;;;;;4940993;29;20058;-93
2022/10/07 06:54:36;;;;;;;6.22;1.70;;;10.40;99.90;;;;;;4941070;29;20047;-91
2022/10/07 06:57:02;;;;;;;8.27;1.45;;;11.20;99.90;;;;;;4920029;29;20135;-93
2022/10/07 06:59:28;;;;;;;8.75;2.00;;;10.50;99.90;;;;;;4911859;29;20079;-93
2022/10/07 07:01:54;;;;;;;5.72;1.30;;;10.20;99.90;;;;;;4906523;29;20064;-94
2022/10/07 07:04:25;;;;;;;6.35;1.20;;;10.50;99.90;;;;;;4905383;29;20091;-96
2022/10/07 07:06:51;;;;;;;8.65;1.27;;;10.70;99.90;;;;;;4919615;29;20052;-91
2022/10/07 07:09:17;;;;;;;9.60;1.42;;;11.00;99.90;;;;;;4919109;29;20477;-86
2022/10/07 07:11:45;;;;;;;4.35;1.20;;;10.90;99.90;;;;;;4918660;29;20060;-86
2022/10/07 07:14:18;;;;;;;9.00;1.83;;;11.00;99.90;;;;;;4930426;29;20051;-86
2022/10/07 07:16:44;;;;;;;7.60;1.70;;;11.80;99.90;;;;;;4917856;29;20062;-87
2022/10/07 07:19:11;;;;;;;7.63;1.67;;;11.90;99.90;;;;;;4921124;29;20060;-85
2022/10/07 07:21:37;;;;;;;8.52;1.10;;;11.20;99.90;;;;;;4920871;29;20063;-90
2022/10/07 07:24:03;;;;;;;8.32;1.67;;;11.20;99.90;;;;;;4921257;29;20055;-87
2022/10/07 07:26:29;;;;;;;7.70;1.15;;;11.30;99.90;;;;;;4905059;29;20139;-85
2022/10/07 07:29:00;;;;;;;9.75;1.50;;;11.40;99.90;;;;;;4922895;29;20086;-93
2022/10/07 07:31:28;;;;;;;10.13;1.55;;;12.10;99.90;;;;;;4919844;29;20505;-87
2022/10/07 07:33:56;;;;;;;9.02;2.05;;;11.50;99.90;;;;;;4920514;29;20056;-93
2022/10/07 07:36:24;;;;;;;6.45;1.75;;;12.00;99.90;;;;;;4907317;29;20082;-92
2022/10/07 07:38:55;;;;;;;8.50;1.85;;;12.10;99.90;;;;;;4905394;29;20493;-93
2022/10/07 07:41:26;;;;;;;8.18;1.60;;;12.10;99.90;;;;;;4902353;29;20409;-92
2022/10/07 07:43:54;;;;;;;9.50;1.73;;;11.80;99.90;;;;;;4923852;29;20047;-90
2022/10/07 07:46:25;;;;;;;6.18;1.60;;;11.90;99.90;;;;;;4911713;29;20083;-95
2022/10/07 07:48:52;;;;;;;8.73;2.10;;;12.00;99.90;;;;;;4938333;29;20059;-96
2022/10/07 07:51:19;;;;;;;9.75;1.70;;;12.10;99.90;;;;;;4924142;29;20520;-91
2022/10/07 07:53:45;;;;;;;9.07;1.70;;;12.10;99.90;;;;;;4920519;29;20059;-93
2022/10/07 07:56:12;;;;;;;7.45;1.50;;;12.40;99.90;;;;;;4937705;29;20054;-91
2022/10/07 07:58:38;;;;;;;12.73;2.00;;;12.30;99.90;;;;;;4932256;29;20044;-93
2022/10/07 08:01:08;;;;;;;6.88;1.40;;;12.40;99.90;;;;;;4908618;29;20065;-91
2022/10/07 08:03:39;;;;;;;7.55;1.60;;;12.90;99.90;;;;;;4920727;29;20058;-95
2022/10/07 08:06:06;;;;;;;9.35;1.80;;;12.50;99.90;;;;;;4940148;29;20044;-94
2022/10/07 08:08:33;;;;;;;12.13;1.70;;;12.60;99.90;;;;;;4937151;29;20074;-93
2022/10/07 08:11:10;;;;;;;11.70;1.30;;;13.00;99.90;;;;;;4920995;29;20402;-93
2022/10/07 08:13:38;;;;;;;4.35;1.42;;;13.10;99.90;;;;;;4938658;29;20055;-92
2022/10/07 08:16:04;;;;;;;5.90;1.52;;;12.80;99.90;;;;;;4952277;29;20401;-89
2022/10/07 08:18:33;;;;;;;5.47;1.25;;;12.90;99.90;;;;;;4922707;29;20071;-95
2022/10/07 08:21:01;;;;;;;10.77;1.80;;;13.00;99.90;;;;;;4938102;29;20084;-94
2022/10/07 08:23:30;;;;;;;5.57;1.05;;;13.10;99.90;;;;;;4938039;29;20123;-92
2022/10/07 08:25:57;;;;;;;5.60;1.25;;;13.20;99.90;;;;;;4920736;29;20131;-90
2022/10/07 08:28:24;;;;;;;5.47;1.10;;;13.30;99.90;;;;;;4920943;29;20059;-91
2022/10/07 08:30:51;;;;;;;8.00;1.58;;;13.30;99.90;;;;;;4937618;29;20090;-91
2022/10/07 08:33:17;;;;;;;7.68;1.83;;;13.50;99.90;;;;;;4937064;29;20143;-92
2022/10/07 08:35:49;;;;;;;8.77;1.85;;;13.80;99.90;;;;;;4920317;29;20114;-93
2022/10/07 08:38:15;;;;;;;12.45;1.30;;;13.60;99.90;;;;;;4936571;29;20493;-87
2022/10/07 08:40:52;;;;;;;9.52;1.30;;;13.70;99.90;;;;;;4919826;29;20055;-90
2022/10/07 08:43:21;;;;;;;8.23;1.25;;;13.80;99.90;;;;;;4919759;29;20063;-92
2022/10/07 08:45:47;;;;;;;12.27;2.55;;;13.80;99.90;;;;;;4922346;29;20390;-90
2022/10/07 08:48:21;;;;;;;5.47;1.33;;;13.90;99.90;;;;;;4946860;29;20110;-91
2022/10/07 08:51:11;;;;;;;5.47;1.15;;;14.00;99.90;;;;;;4907084;29;20123;-89
2022/10/07 08:53:37;;;;;;;7.43;1.15;;;14.00;99.90;;;;;;4919263;29;20060;-89
2022/10/07 08:56:17;;;;;;;8.65;1.42;;;14.10;99.90;;;;;;4919012;29;20118;-93
2022/10/07 08:58:52;;;;;;;9.88;1.40;;;14.20;99.90;;;;;;4936529;29;20063;-94
2022/10/07 09:01:37;;;;;;;;;;;14.30;99.90;;;;;;4936655;29;20197;-92
2022/10/07 09:04:24;;;;;;;6.65;1.40;;;14.00;99.90;;;;;;4919087;29;19922;-90
2022/10/07 09:06:59;;;;;;;6.55;1.17;;;14.40;99.90;;;;;;4918958;29;20095;-91
2022/10/07 09:09:34;;;;;;;10.60;1.63;;;14.50;99.90;;;;;;4919284;29;20504;-88
2022/10/07 09:12:02;;;;;;;9.43;1.17;;;14.20;99.90;;;;;;4919066;29;20101;-90
2022/10/07 09:14:33;;;;;;;13.00;1.15;;;14.70;99.90;;;;;;4918634;29;20070;-91
2022/10/07 09:17:17;;;;;;;4.00;1.00;;;14.70;99.90;;;;;;4919568;29;20063;-91
2022/10/07 09:19:51;;;;;;;6.22;0.90;;;14.80;99.90;;;;;;4935981;29;20107;-91
2022/10/07 09:22:20;;;;;;;8.05;1.60;;;15.00;99.90;;;;;;4919048;29;20480;-93
2022/10/07 09:25:19;;;;;;;6.57;1.00;;;15.30;99.90;;;;;;4919144;29;20535;-91
2022/10/07 09:27:45;;;;;;;6.13;1.10;;;15.00;99.90;;;;;;4918390;29;20052;-89
2022/10/07 09:30:15;;;;;;;10.25;1.38;;;15.10;99.90;;;;;;4920312;29;20135;-92
2022/10/07 09:32:44;;;;;;;9.82;1.20;;;15.20;99.90;;;;;;4919625;29;20064;-88
2022/10/07 09:35:18;;;;;;;3.28;0.82;;;15.20;99.90;;;;;;4937897;29;20047;-94
2022/10/07 09:40:34;;;;;;;5.55;1.10;;;15.40;99.90;;;;;;4925159;23;20044;-90
2022/10/07 09:43:08;;;;;;;12.45;3.63;;;15.50;99.90;;;;;;4920000;29;20052;-90
2022/10/07 09:45:37;;;;;;;6.80;1.58;;;15.60;99.90;;;;;;4904004;29;20067;-92
2022/10/07 09:48:20;;;;;;;3.95;1.08;;;16.00;99.90;;;;;;4920126;29;20058;-91
2022/10/07 09:51:14;;;;;;;10.45;1.40;;;15.60;99.90;;;;;;4903153;29;20094;-91
2022/10/07 09:54:04;;;;;;;4.72;0.80;;;15.80;99.90;;;;;;4905512;29;20104;-90
2022/10/07 09:56:38;;;;;;;4.55;0.80;;;15.90;99.90;;;;;;4903094;29;20408;-90
2022/10/07 09:59:22;;;;;;;10.43;1.00;;;16.00;99.90;;;;;;4920363;29;20502;-91
2022/10/07 10:02:14;;;;;;;6.72;0.88;;;16.00;99.90;;;;;;4903621;29;20060;-95
2022/10/07 10:04:49;;;;;;;6.10;0.98;;;16.20;99.90;;;;;;4898760;29;20100;-87
2022/10/07 10:07:28;;;;;;;7.05;1.20;;;16.30;99.90;;;;;;4919973;29;20048;-92
2022/10/07 10:09:58;;;;;;;8.27;0.98;;;16.40;99.90;;;;;;4902487;29;20613;-87
2022/10/07 10:12:25;;;;;;;8.85;1.42;;;16.50;99.90;;;;;;4902800;29;20421;-87
2022/10/07 10:14:56;;;;;;;6.35;0.80;;;16.60;99.90;;;;;;4919740;29;20498;-90
2022/10/07 10:17:26;;;;;;;10.23;1.83;;;16.70;99.90;;;;;;4902444;29;20056;-90
2022/10/07 10:19:53;;;;;;;6.07;0.98;;;16.80;99.90;;;;;;4919427;29;20370;-87
2022/10/07 10:22:31;;;;;;;9.20;1.10;;;16.80;99.90;;;;;;4902236;29;20232;-92
2022/10/07 10:28:00;;;;;;;5.22;1.00;;;17.00;99.90;;;;;;4902675;29;20131;-88
2022/10/07 10:30:29;;;;;;;7.10;0.95;;;17.10;99.90;;;;;;4902287;29;20417;-86
2022/10/07 10:33:00;;;;;;;5.93;0.95;;;17.20;99.90;;;;;;4902028;29;20056;-86
2022/10/07 10:35:38;;;;;;;8.52;1.10;;;17.20;99.90;;;;;;4901926;29;20493;-89
2022/10/07 10:38:31;;;;;;;8.07;1.45;;;17.40;99.90;;;;;;4902168;29;20401;-88
2022/10/07 10:41:30;;;;;;;9.10;1.20;;;17.40;99.90;;;;;;4902153;29;20068;-89
2022/10/07 10:44:47;;;;;;;11.65;1.02;;;17.50;99.90;;;;;;4902159;29;20052;-88
2022/10/07 10:47:43;;;;;;;6.38;0.80;;;17.60;99.90;;;;;;4863806;29;20061;-85
2022/10/07 10:50:41;;;;;;;9.60;2.17;;;17.70;99.90;;;;;;4812739;29;20047;-89
2022/10/07 10:53:36;;;;;;;3.58;0.98;;;17.70;99.90;;;;;;4806219;29;20065;-88
2022/10/07 10:56:33;;;;;;;8.98;0.80;;;17.70;99.90;;;;;;4807947;29;20051;-85
2022/10/07 10:59:10;;;;;;;3.63;0.60;;;17.70;99.90;;;;;;4756797;30;20070;-87
2022/10/07 11:01:41;;;;;;;7.68;0.90;;;17.60;99.90;;;;;;4753043;30;20048;-88
2022/10/07 11:04:40;;;;;;;5.15;0.90;;;17.80;99.90;;;;;;4737706;30;20068;-86
2022/10/07 11:07:19;;;;;;;6.53;0.90;;;17.70;99.90;;;;;;4737937;30;20087;-86
2022/10/07 11:09:56;;;;;;;9.15;0.95;;;17.90;99.90;;;;;;4752131;30;20236;-92
2022/10/07 11:12:43;;;;;;;4.15;1.15;;;17.80;99.90;;;;;;4742243;30;20064;-91
2022/10/07 11:15:21;;;;;;;8.75;1.08;;;17.80;99.90;;;;;;4730585;30;20063;-91
2022/10/07 11:17:50;;;;;;;6.13;0.77;;;17.70;99.90;;;;;;4752992;30;20040;-91
2022/10/07 11:20:36;;;;;;;8.27;0.98;;;17.70;99.90;;;;;;4737227;30;20096;-91
2022/10/07 11:23:16;;;;;;;7.43;0.68;;;17.80;99.90;;;;;;4766274;30;20142;-92
2022/10/07 11:25:49;;;;;;;3.33;0.60;;;17.80;99.90;;;;;;4796646;29;20054;-87
2022/10/07 11:28:20;;;;;;;9.48;0.82;;;17.80;99.90;;;;;;4841266;29;20070;-86
2022/10/07 11:31:13;;;;;;;5.78;1.17;;;17.90;99.90;;;;;;4825728;29;20050;-90
2022/10/07 11:33:51;;;;;;;7.63;0.68;;;18.00;99.90;;;;;;4789893;29;20063;-89
2022/10/07 11:36:23;;;;;;;6.43;1.08;;;17.90;99.90;;;;;;4839861;29;20165;-94
2022/10/07 11:38:51;;;;;;;3.95;0.70;;;18.20;99.90;;;;;;4843284;29;20084;-90
2022/10/07 11:41:25;;;;;;;4.47;0.50;;;18.50;99.90;;;;;;4860212;29;20487;-89
2022/10/07 11:43:57;;;;;;;2.92;0.45;;;18.30;99.90;;;;;;4859707;29;20060;-92
2022/10/07 11:46:35;;;;;;;7.85;1.40;;;18.40;99.90;;;;;;4838935;29;20132;-93
2022/10/07 11:49:15;;;;;;;5.50;0.55;;;18.20;99.90;;;;;;4829947;29;20077;-94
2022/10/07 11:51:44;;;;;;;4.53;0.75;;;18.20;99.90;;;;;;4826291;29;20049;-91
2022/10/07 11:54:14;;;;;;;3.30;0.60;;;18.10;99.90;;;;;;4857180;29;20053;-89
2022/10/07 11:56:50;;;;;;;4.97;0.55;;;18.10;99.90;;;;;;4842929;29;20072;-92
2022/10/07 11:59:38;;;;;;;;;;;18.00;99.90;;;;;;4832880;29;20058;-89
2022/10/07 12:02:27;;;;;;;4.50;0.63;;;18.10;99.90;;;;;;4848611;29;19928;-92
2022/10/07 12:04:54;;;;;;;3.85;0.60;;;18.00;99.90;;;;;;4856751;29;20046;-89
2022/10/07 12:07:36;;;;;;;5.93;0.65;;;18.00;99.90;;;;;;4827486;29;20062;-91
2022/10/07 12:10:05;;;;;;;3.30;0.80;;;18.00;99.90;;;;;;4845552;29;20071;-92
2022/10/07 12:12:44;;;;;;;5.80;0.73;;;18.10;99.90;;;;;;4889650;29;20056;-89
2022/10/07 12:15:30;;;;;;;3.38;0.50;;;18.20;99.90;;;;;;4883589;29;20068;-91
2022/10/07 12:18:04;;;;;;;4.13;0.75;;;18.20;99.90;;;;;;4892797;29;20052;-87
2022/10/07 12:20:33;;;;;;;3.90;0.45;;;18.20;99.90;;;;;;4915847;29;20052;-87
2022/10/07 12:23:17;;;;;;;2.63;0.50;;;18.30;99.90;;;;;;4900071;29;20517;-89
2022/10/07 12:25:45;;;;;;;7.07;1.10;;;18.30;99.90;;;;;;4917043;29;20147;-87
2022/10/07 12:28:50;;;;;;;4.85;0.88;;;18.30;99.90;;;;;;4900166;29;20052;-91
2022/10/07 12:31:17;;;;;;;4.25;0.68;;;18.50;99.90;;;;;;4843799;29;20091;-88
2022/10/07 12:33:46;;;;;;;6.40;1.25;;;18.60;99.90;;;;;;4843200;29;20120;-89
2022/10/07 12:39:37;;;;;;;6.20;0.68;;;18.80;99.90;;;;;;4857046;29;20133;-89
2022/10/07 12:42:10;;;;;;;5.15;0.60;;;18.90;99.90;;;;;;4843461;29;20531;-89
2022/10/07 12:44:42;;;;;;;4.50;0.50;;;18.90;99.90;;;;;;4858830;29;20114;-92
2022/10/07 12:47:16;;;;;;;7.35;0.80;;;18.80;99.90;;;;;;4862246;29;20124;-91
2022/10/07 12:49:50;;;;;;;10.48;0.80;;;18.70;99.90;;;;;;4849751;29;20056;-89
2022/10/07 12:52:22;;;;;;;4.55;0.60;;;18.80;99.90;;;;;;4863880;29;20129;-86
2022/10/07 12:54:57;;;;;;;3.00;0.80;;;18.70;99.90;;;;;;4843509;29;20074;-88
2022/10/07 12:57:35;;;;;;;6.47;0.80;;;18.60;99.90;;;;;;4843381;29;20146;-90
2022/10/07 13:00:15;;;;;;;4.53;0.70;;;18.60;99.90;;;;;;4858599;29;20058;-91
2022/10/07 13:03:10;;;;;;;6.13;0.52;;;18.60;99.90;;;;;;4887644;29;20056;-89
2022/10/07 13:06:10;;;;;;;4.32;0.60;;;18.50;99.90;;;;;;4899505;29;20056;-93
2022/10/07 13:08:54;;;;;;;5.40;0.63;;;18.40;99.90;;;;;;4909679;29;20111;-90
2022/10/07 13:11:51;;;;;;;5.15;0.60;;;18.50;99.90;;;;;;4903368;29;20084;-92
2022/10/07 13:14:58;;;;;;;5.78;0.70;;;18.40;99.90;;;;;;4903227;29;20052;-88
2022/10/07 13:17:38;;;;;;;5.88;0.60;;;18.40;99.90;;;;;;4901197;29;20049;-89
2022/10/07 13:20:42;;;;;;;0.82;0.43;;;18.40;99.90;;;;;;4895782;29;20378;-87
2022/10/07 13:23:25;;;;;;;3.33;0.52;;;18.40;99.90;;;;;;4918754;29;20132;-89
2022/10/07 13:26:00;;;;;;;2.40;0.45;;;18.30;99.90;;;;;;4919924;29;20120;-86
2022/10/07 13:28:49;;;;;;;;;;;18.30;99.90;;;;;;4920970;29;20051;-88
2022/10/07 13:31:31;;;;;;;2.80;0.55;;;18.30;99.90;;;;;;4902954;29;19927;-88
2022/10/07 13:34:21;;;;;;;4.18;0.70;;;18.20;99.90;;;;;;4902699;29;20409;-88
2022/10/07 13:37:25;;;;;;;4.65;0.50;;;18.30;99.90;;;;;;4919908;29;20067;-88